Decoded Metar for KIFA ( in _UNIDENTIFIED) (IATA:N/A) | Meteo·Mobile Aviation Weather
aviador You're here:

KIFA Decoded Metar

in _UNIDENTIFIED
Report Time2018-11-16 07:55:00
UTC Time2018-11-16 08:08:37
Flight Rules mvfr MVFR
Wind310° at 20 Gusting to 25 kt
W.Decomp.*RWY 31: 20.0 kt HW 0.3 kt LCW
W.Rank310° ranks 1
Current wind is above 310° avg. (11.0)
Visibility9999 m
Phenomena:N/A
Clouds:Overcast 013 Hf
Expected CloudBase > 800 ft AGL from Temp-Dew spread
Ceiling1,300 ft
Temp02°C (ISA -11)
Dew Point00°C (87% RH)
AAT-7.2°C
QNH1013 hPa
Density Alt-75 ft
Elevation1,138 ft
Report Wrong Elevation
Raw Report
KIFA 160755Z AUTO 31020G25KT 10SM OVC013 02/00 A2992 RMK AO2
T00201001=

Extra information for KIFA:More info

Metar Taf Metar & Taf Last 4 Metars F.Rules Stats Wind Profile Meteogram Temp Stats Metar ALERT Operation Metar Decoded Social comments